LavenderCAM.net
Leatherhead Weather
 
Leatherhead Weather
 
 





Aviation weather for

London Heathrow (EGLL) and London Gatwick (EGKK)



London Heathrow (EGLL) METAR / Surface Actual
London / Heathrow Airport, United Kingdom (EGLL) 51-29N 000-27W 0M
Apr 11, 2021 - 01:50 AM EDT / 2021.04.11 0550 UTC
Wind: from the N (350 degrees) at 5 MPH (4 KT) (direction variable):0
Visibility: greater than 7 mile(s):0
Sky conditions: partly cloudy
Temperature: 35 F (2 C)
Windchill: 30 F (-1 C):1
Dew Point: 28 F (-2 C)
Relative Humidity: 74%
Pressure (altimeter): 30.03 in. Hg (1017 hPa)
ob: EGLL 110550Z AUTO 35004KT 300V040 9999 SCT033 02/M02 Q1017
cycle: 6
London Heathrow (EGLL) TAF / Forecast
2021/04/11 06:09
TAF EGLL 110501Z 1106/1212 35010KT 9999 FEW045 
      TEMPO 1113/1122 8000 -SHRA PROB30 
      TEMPO 1116/1121 4000 SHRASN 
      BECMG 1122/1201 27005KT PROB30 1205/1208 4000 -RASN 
      TEMPO 1206/1212 8000 -RA BKN014 
      BECMG 1209/1212 34010KT


London Gatwick (EGKK) METAR / Surface Actual
London / Gatwick Airport, United Kingdom (EGKK) 51-09N 000-11W 0M
Apr 11, 2021 - 01:50 AM EDT / 2021.04.11 0550 UTC
Wind: from the NW (320 degrees) at 5 MPH (4 KT):0
Visibility: greater than 7 mile(s):0
Temperature: 33 F (1 C)
Windchill: 28 F (-2 C):1
Dew Point: 28 F (-2 C)
Relative Humidity: 80%
Pressure (altimeter): 30.00 in. Hg (1016 hPa)
ob: EGKK 110550Z 32004KT CAVOK 01/M02 Q1016
cycle: 6
London Gatwick (EGKK) TAF / Forecast
2021/04/11 06:09
TAF EGKK 110457Z 1106/1212 36010KT 9999 FEW035 PROB30 
      TEMPO 1112/1118 8000 -SHRA 
      BECMG 1117/1120 28005KT PROB30 
      TEMPO 1118/1122 4000 SHRA 
      TEMPO 1205/1212 8000 -RA BKN014 PROB30 
      TEMPO 1205/1209 -RASN